createdAt,value
2018-07-23T00:00:58.575Z,21.90
2018-07-23T00:03:26.270Z,21.80
2018-07-23T00:05:53.894Z,21.80
2018-07-23T00:08:21.334Z,21.60
2018-07-23T00:10:48.755Z,21.70
2018-07-23T00:13:17.227Z,21.60
2018-07-23T00:18:11.950Z,21.50
2018-07-23T00:20:39.339Z,21.50
2018-07-23T00:23:07.070Z,21.40
2018-07-23T00:25:34.490Z,21.40
2018-07-23T00:28:01.830Z,21.10
2018-07-23T00:30:29.249Z,21.40
2018-07-23T00:32:56.590Z,21.20
2018-07-23T00:35:24.073Z,21.20
2018-07-23T00:37:51.540Z,21.20
2018-07-23T00:40:19.061Z,21.10
2018-07-23T00:42:46.480Z,21.10
2018-07-23T00:45:13.812Z,21.10
2018-07-23T00:47:41.253Z,21.00
2018-07-23T00:50:08.666Z,21.00
2018-07-23T00:55:03.869Z,20.90
2018-07-23T00:57:31.235Z,20.90
2018-07-23T00:59:58.717Z,20.80
2018-07-23T01:02:26.127Z,20.80
2018-07-23T01:04:53.550Z,20.80
2018-07-23T01:07:20.970Z,20.70
2018-07-23T01:09:48.526Z,20.70
2018-07-23T01:12:28.642Z,20.70
2018-07-23T01:14:56.519Z,20.70
2018-07-23T01:17:23.949Z,20.60
2018-07-23T01:19:52.314Z,20.50
2018-07-23T01:22:20.101Z,20.50
2018-07-23T01:24:47.706Z,20.50
2018-07-23T01:27:15.137Z,20.40
2018-07-23T01:29:42.506Z,20.40
2018-07-23T01:32:09.887Z,20.40
2018-07-23T01:34:37.374Z,20.30
2018-07-23T01:37:04.922Z,20.30
2018-07-23T01:39:36.743Z,20.30
2018-07-23T01:42:04.910Z,19.90
2018-07-23T01:44:32.443Z,20.20
2018-07-23T01:46:59.878Z,20.20
2018-07-23T01:49:27.274Z,20.20
2018-07-23T01:51:54.645Z,20.10
2018-07-23T01:54:22.277Z,20.00
2018-07-23T01:56:49.666Z,20.00
2018-07-23T01:59:17.295Z,20.00
2018-07-23T02:01:44.688Z,20.00
2018-07-23T02:04:12.079Z,20.00
2018-07-23T02:06:39.410Z,19.90
2018-07-23T02:09:08.507Z,19.90
2018-07-23T02:11:35.908Z,20.10
2018-07-23T02:14:03.364Z,19.90
2018-07-23T02:16:30.800Z,19.80
2018-07-23T02:18:58.115Z,19.80
2018-07-23T02:21:25.582Z,19.90
2018-07-23T02:23:53.070Z,19.80
2018-07-23T02:26:20.469Z,20.10
2018-07-23T02:28:47.877Z,19.80
2018-07-23T02:31:15.281Z,19.70
2018-07-23T02:33:42.620Z,19.70
2018-07-23T02:36:10.031Z,19.70
2018-07-23T02:38:37.406Z,19.50
2018-07-23T02:41:04.917Z,19.70
2018-07-23T02:43:32.311Z,19.70
2018-07-23T02:45:59.682Z,19.70
2018-07-23T02:48:27.119Z,19.70
2018-07-23T02:50:54.579Z,19.70
2018-07-23T02:53:21.994Z,19.80
2018-07-23T02:55:49.495Z,19.80
2018-07-23T02:58:16.951Z,19.80
2018-07-23T03:00:44.417Z,19.80
2018-07-23T03:03:11.814Z,19.80
2018-07-23T03:05:39.261Z,19.80
2018-07-23T03:08:06.794Z,19.80
2018-07-23T03:10:34.277Z,19.90
2018-07-23T03:13:01.751Z,19.90
2018-07-23T03:15:29.167Z,19.90
2018-07-23T03:17:56.736Z,19.90
2018-07-23T03:20:26.457Z,19.90
2018-07-23T03:22:56.747Z,19.90
2018-07-23T03:25:24.292Z,19.90
2018-07-23T03:27:51.786Z,20.00
2018-07-23T03:30:19.266Z,19.60
2018-07-23T03:32:46.671Z,20.00
2018-07-23T03:35:14.103Z,20.00
2018-07-23T03:37:41.587Z,20.00
2018-07-23T03:40:09.062Z,20.00
2018-07-23T03:42:36.522Z,20.00
2018-07-23T03:45:04.615Z,20.00
2018-07-23T03:47:32.091Z,20.10
2018-07-23T03:49:59.514Z,20.00
2018-07-23T03:52:27.746Z,20.10
2018-07-23T03:54:55.130Z,20.00
2018-07-23T03:57:22.630Z,20.00
2018-07-23T03:59:50.077Z,20.00
2018-07-23T04:02:17.709Z,20.00
2018-07-23T04:04:45.176Z,20.00
2018-07-23T04:07:12.626Z,20.00
2018-07-23T04:09:40.107Z,20.00
2018-07-23T04:12:07.586Z,20.00
2018-07-23T04:14:34.956Z,20.00
2018-07-23T04:17:02.388Z,20.00
2018-07-23T04:19:29.965Z,20.00
2018-07-23T04:21:57.985Z,20.00
2018-07-23T04:24:36.610Z,20.00
2018-07-23T04:27:04.142Z,20.00
2018-07-23T04:29:31.568Z,19.90
2018-07-23T04:31:58.972Z,20.00
2018-07-23T04:34:26.434Z,19.90
2018-07-23T04:36:53.930Z,19.90
2018-07-23T04:39:21.284Z,19.90
2018-07-23T04:44:16.144Z,19.80
2018-07-23T04:46:43.598Z,19.90
2018-07-23T04:49:11.059Z,19.90
2018-07-23T04:51:38.450Z,19.80
2018-07-23T04:54:05.826Z,19.90
2018-07-23T04:56:33.482Z,20.00
2018-07-23T04:59:00.937Z,19.90
2018-07-23T05:01:28.923Z,19.90
2018-07-23T05:03:56.374Z,19.90
2018-07-23T05:06:23.870Z,19.60
2018-07-23T05:08:51.546Z,19.90
2018-07-23T05:11:18.945Z,19.90
2018-07-23T05:13:46.462Z,19.90
2018-07-23T05:16:13.850Z,19.90
2018-07-23T05:18:41.390Z,19.90
2018-07-23T05:21:08.802Z,20.00
2018-07-23T05:23:36.341Z,20.00
2018-07-23T05:26:03.810Z,20.00
2018-07-23T05:28:31.233Z,20.00
2018-07-23T05:31:11.899Z,20.00
2018-07-23T05:38:57.823Z,20.10
2018-07-23T05:41:25.494Z,20.20
2018-07-23T05:46:20.822Z,20.30
2018-07-23T05:48:48.447Z,20.30
2018-07-23T05:51:16.331Z,20.30
2018-07-23T05:56:11.626Z,20.30
2018-07-23T05:58:39.277Z,20.50
2018-07-23T06:01:07.275Z,20.60
2018-07-23T06:03:35.016Z,20.70
2018-07-23T06:06:03.097Z,20.70
2018-07-23T06:08:30.730Z,20.60
2018-07-23T06:10:58.333Z,20.80
2018-07-23T06:13:25.979Z,20.90
2018-07-23T06:15:53.550Z,21.00
2018-07-23T06:18:21.190Z,21.00
2018-07-23T06:20:48.803Z,21.20
2018-07-23T06:23:16.494Z,21.20
2018-07-23T06:25:44.126Z,21.30
2018-07-23T06:28:11.738Z,21.40
2018-07-23T06:30:39.390Z,21.40
2018-07-23T06:33:07.130Z,21.40
2018-07-23T06:35:34.846Z,21.50
2018-07-23T06:38:02.967Z,21.50
2018-07-23T06:40:30.749Z,21.60
2018-07-23T06:42:58.347Z,21.70
2018-07-23T06:45:25.951Z,21.90
2018-07-23T06:47:53.558Z,22.00
2018-07-23T06:50:22.714Z,22.00
2018-07-23T06:52:50.362Z,22.10
2018-07-23T06:55:17.978Z,22.30
2018-07-23T06:57:45.602Z,22.30
2018-07-23T07:00:13.289Z,22.30
2018-07-23T07:02:40.921Z,22.40
2018-07-23T07:05:08.542Z,22.30
2018-07-23T07:07:36.241Z,22.50
2018-07-23T07:10:04.190Z,22.70
2018-07-23T07:12:31.851Z,22.90
2018-07-23T07:14:59.476Z,22.80
2018-07-23T07:17:27.159Z,23.00
2018-07-23T07:20:00.713Z,23.20
2018-07-23T07:22:28.200Z,23.20
2018-07-23T07:24:55.822Z,23.40
2018-07-23T07:27:23.916Z,23.20
2018-07-23T07:29:51.561Z,23.70
2018-07-23T07:32:19.293Z,24.00
2018-07-23T07:34:46.958Z,24.00
2018-07-23T07:37:14.994Z,24.30
2018-07-23T07:39:43.444Z,25.00
2018-07-23T07:42:11.136Z,25.80
2018-07-23T07:44:39.014Z,27.10
2018-07-23T07:47:06.738Z,28.00
2018-07-23T07:49:34.812Z,29.30
2018-07-23T07:52:02.506Z,30.50
2018-07-23T07:54:30.156Z,31.70
2018-07-23T07:56:58.000Z,33.30
2018-07-23T07:59:25.765Z,34.40
2018-07-23T08:01:53.362Z,35.50
2018-07-23T08:04:21.091Z,35.50
2018-07-23T08:06:48.714Z,35.90
2018-07-23T08:09:16.351Z,36.00
2018-07-23T08:11:45.087Z,36.20
2018-07-23T08:14:12.743Z,36.40
2018-07-23T08:16:40.425Z,37.10
2018-07-23T08:19:08.026Z,37.60
2018-07-23T08:21:40.641Z,37.70
2018-07-23T08:24:08.225Z,38.20
2018-07-23T08:26:35.862Z,38.20
2018-07-23T08:29:03.521Z,38.30
2018-07-23T08:31:31.192Z,38.10
2018-07-23T08:34:05.606Z,38.60
2018-07-23T08:36:33.375Z,38.20
2018-07-23T08:39:00.977Z,36.40
2018-07-23T08:41:28.602Z,35.20
2018-07-23T08:43:56.263Z,33.80
2018-07-23T08:46:27.775Z,32.30
2018-07-23T08:48:55.431Z,31.00
2018-07-23T08:51:23.028Z,29.90
2018-07-23T08:53:50.650Z,29.40
2018-07-23T08:56:18.338Z,29.00
2018-07-23T08:58:51.456Z,28.60
2018-07-23T09:01:19.103Z,28.10
2018-07-23T09:03:46.786Z,28.00
2018-07-23T09:06:14.390Z,27.80
2018-07-23T09:08:42.122Z,27.60
2018-07-23T09:11:09.554Z,27.50
2018-07-23T09:13:40.131Z,27.20
2018-07-23T09:16:07.948Z,27.10
2018-07-23T09:18:35.514Z,27.20
2018-07-23T09:21:03.202Z,26.70
2018-07-23T09:23:30.773Z,26.90
2018-07-23T09:25:58.405Z,26.90
2018-07-23T09:28:29.895Z,26.70
2018-07-23T09:30:57.540Z,26.80
2018-07-23T09:33:25.265Z,26.80
2018-07-23T09:35:53.226Z,26.80
2018-07-23T09:38:21.678Z,26.80
2018-07-23T09:40:49.299Z,26.70
2018-07-23T09:43:16.997Z,26.60
2018-07-23T09:45:44.642Z,27.00
2018-07-23T09:48:12.250Z,27.10
2018-07-23T09:50:39.810Z,27.20
2018-07-23T09:53:07.357Z,27.30
2018-07-23T09:55:34.993Z,27.30
2018-07-23T09:58:02.542Z,27.50
2018-07-23T10:00:35.958Z,27.50
2018-07-23T10:03:03.749Z,27.50
2018-07-23T10:05:31.234Z,27.70
2018-07-23T10:07:58.794Z,27.70
2018-07-23T10:10:26.400Z,27.70
2018-07-23T10:12:53.978Z,27.50
2018-07-23T10:15:21.578Z,27.50
2018-07-23T10:17:49.166Z,27.80
2018-07-23T10:20:16.803Z,27.70
2018-07-23T10:22:44.347Z,27.90
2018-07-23T10:25:11.949Z,28.10
2018-07-23T10:27:39.555Z,28.30
2018-07-23T10:30:07.135Z,28.40
2018-07-23T10:32:35.139Z,28.30
2018-07-23T10:35:02.878Z,28.50
2018-07-23T10:37:30.438Z,28.40
2018-07-23T10:39:58.106Z,28.50
2018-07-23T10:42:25.754Z,28.40
2018-07-23T10:44:54.054Z,28.50
2018-07-23T10:47:21.750Z,28.50
2018-07-23T10:49:49.460Z,28.30
2018-07-23T10:52:17.052Z,28.50
2018-07-23T10:54:44.631Z,28.90
2018-07-23T10:57:12.478Z,29.10
2018-07-23T10:59:40.002Z,29.00
2018-07-23T11:02:07.606Z,28.80
2018-07-23T11:04:35.230Z,29.00
2018-07-23T11:07:02.837Z,29.00
2018-07-23T11:09:30.445Z,29.10
2018-07-23T11:11:58.007Z,29.00
2018-07-23T11:14:25.620Z,29.10
2018-07-23T11:16:53.207Z,29.20
2018-07-23T11:19:20.928Z,29.40
2018-07-23T11:21:48.405Z,29.40
2018-07-23T11:24:16.002Z,29.50
2018-07-23T11:26:43.619Z,29.50
2018-07-23T11:29:11.142Z,29.50
2018-07-23T11:31:38.739Z,29.50
2018-07-23T11:34:06.489Z,29.80
2018-07-23T11:36:34.365Z,29.90
2018-07-23T11:39:02.173Z,30.00
2018-07-23T11:41:29.693Z,30.20
2018-07-23T11:43:57.259Z,30.50
2018-07-23T11:48:52.386Z,30.70
2018-07-23T11:51:19.994Z,30.80
2018-07-23T11:53:47.658Z,30.70
2018-07-23T11:56:15.279Z,30.60
2018-07-23T11:58:42.969Z,30.50
2018-07-23T12:01:10.582Z,30.10
2018-07-23T12:03:38.285Z,30.00
2018-07-23T12:06:05.893Z,30.00
2018-07-23T12:08:33.574Z,30.00
2018-07-23T12:11:01.279Z,29.80
2018-07-23T12:13:28.884Z,30.00
2018-07-23T12:15:56.585Z,29.70
2018-07-23T12:18:24.199Z,30.00
2018-07-23T12:20:51.749Z,30.00
2018-07-23T12:23:19.554Z,29.80
2018-07-23T12:25:47.148Z,29.60
2018-07-23T12:28:14.791Z,29.70
2018-07-23T12:30:42.445Z,29.80
2018-07-23T12:33:10.079Z,30.00
2018-07-23T12:35:37.696Z,30.00
2018-07-23T12:38:05.304Z,29.90
2018-07-23T12:40:32.903Z,29.90
2018-07-23T12:45:28.218Z,29.90
2018-07-23T12:47:55.925Z,30.00
2018-07-23T12:50:23.570Z,29.80
2018-07-23T12:52:51.181Z,29.80
2018-07-23T12:55:18.808Z,29.70
2018-07-23T12:57:46.430Z,29.70
2018-07-23T13:00:13.980Z,29.70
2018-07-23T13:02:41.534Z,29.50
2018-07-23T13:05:09.130Z,29.50
2018-07-23T13:07:36.682Z,29.60
2018-07-23T13:12:35.259Z,29.90
2018-07-23T13:15:02.670Z,30.10
2018-07-23T13:17:30.052Z,30.10
2018-07-23T13:19:57.435Z,30.00
2018-07-23T13:22:31.037Z,30.00
2018-07-23T13:24:58.411Z,30.00
2018-07-23T13:27:25.758Z,30.20
2018-07-23T13:29:53.087Z,30.20
2018-07-23T13:32:20.592Z,30.30
2018-07-23T13:34:47.925Z,30.40
2018-07-23T13:37:16.574Z,30.40
2018-07-23T13:39:43.954Z,30.30
2018-07-23T13:42:11.354Z,30.20
2018-07-23T13:44:38.769Z,30.40
2018-07-23T13:47:06.344Z,30.30
2018-07-23T13:49:33.798Z,30.30
2018-07-23T13:52:01.182Z,30.40
2018-07-23T13:54:30.394Z,30.50
2018-07-23T13:56:57.633Z,30.50
2018-07-23T13:59:25.028Z,30.60
2018-07-23T14:01:52.427Z,30.70
2018-07-23T14:04:27.909Z,30.70
2018-07-23T14:06:55.350Z,30.70
2018-07-23T14:09:22.719Z,30.50
2018-07-23T14:11:50.101Z,30.50
2018-07-23T14:14:17.555Z,30.50
2018-07-23T14:16:45.094Z,30.50
2018-07-23T14:19:12.521Z,30.60
2018-07-23T14:21:39.962Z,30.50
2018-07-23T14:24:07.404Z,30.50
2018-07-23T14:26:34.985Z,30.40
2018-07-23T14:29:04.682Z,30.50
2018-07-23T14:31:32.312Z,30.50
2018-07-23T14:34:01.134Z,30.50
2018-07-23T14:36:28.556Z,30.50
2018-07-23T14:38:55.974Z,30.50
2018-07-23T14:41:23.454Z,30.40
2018-07-23T14:43:52.096Z,30.40
2018-07-23T14:46:19.505Z,30.40
2018-07-23T14:48:46.903Z,30.30
2018-07-23T14:51:14.386Z,30.30
2018-07-23T14:53:42.759Z,30.30
2018-07-23T14:56:10.179Z,30.30
2018-07-23T14:58:37.585Z,30.40
2018-07-23T15:01:05.211Z,30.50
2018-07-23T15:03:32.682Z,30.60
2018-07-23T15:06:00.217Z,30.60
2018-07-23T15:08:27.654Z,30.60
2018-07-23T15:10:55.074Z,30.60
2018-07-23T15:13:22.490Z,30.60
2018-07-23T15:15:50.162Z,30.60
2018-07-23T15:18:17.579Z,30.70
2018-07-23T15:20:45.170Z,30.70
2018-07-23T15:23:13.119Z,30.60
2018-07-23T15:25:40.559Z,30.50
2018-07-23T15:28:07.973Z,30.70
2018-07-23T15:30:35.366Z,30.60
2018-07-23T15:33:02.845Z,30.40
2018-07-23T15:35:30.243Z,30.40
2018-07-23T15:37:58.180Z,30.30
2018-07-23T15:40:25.908Z,30.30
2018-07-23T15:42:53.642Z,30.30
2018-07-23T15:45:21.176Z,30.20
2018-07-23T15:47:48.499Z,30.30
2018-07-23T15:50:15.942Z,30.40
2018-07-23T15:52:43.398Z,30.40
2018-07-23T15:55:10.817Z,30.60
2018-07-23T15:57:38.219Z,30.60
2018-07-23T16:00:06.166Z,30.80
2018-07-23T16:02:33.715Z,30.80
2018-07-23T16:05:01.142Z,30.80
2018-07-23T16:07:28.523Z,31.00
2018-07-23T16:09:56.022Z,31.00
2018-07-23T16:12:23.383Z,30.90
2018-07-23T16:14:50.744Z,31.10
2018-07-23T16:17:18.205Z,31.10
2018-07-23T16:19:45.665Z,31.10
2018-07-23T16:22:13.117Z,31.00
2018-07-23T16:24:40.551Z,30.80
2018-07-23T16:27:07.981Z,31.00
2018-07-23T16:29:35.545Z,30.90
2018-07-23T16:32:02.978Z,30.90
2018-07-23T16:34:30.359Z,30.90
2018-07-23T16:36:58.098Z,30.90
2018-07-23T16:39:25.450Z,30.90
2018-07-23T16:41:53.396Z,30.90
2018-07-23T16:44:20.902Z,30.90
2018-07-23T16:46:48.355Z,30.80
2018-07-23T16:49:15.653Z,30.80
2018-07-23T16:51:43.088Z,30.80
2018-07-23T16:54:10.564Z,30.70
2018-07-23T16:56:38.037Z,30.80
2018-07-23T16:59:05.403Z,30.70
2018-07-23T17:01:32.825Z,30.60
2018-07-23T17:04:00.673Z,30.60
2018-07-23T17:06:28.332Z,30.60
2018-07-23T17:08:55.750Z,30.60
2018-07-23T17:11:23.206Z,30.60
2018-07-23T17:13:50.725Z,30.50
2018-07-23T17:16:18.117Z,30.40
2018-07-23T17:18:45.575Z,30.40
2018-07-23T17:21:13.601Z,30.40
2018-07-23T17:23:53.946Z,30.40
2018-07-23T17:26:23.350Z,30.40
2018-07-23T17:28:53.735Z,30.40
2018-07-23T17:31:21.718Z,30.30
2018-07-23T17:33:49.165Z,30.20
2018-07-23T17:36:16.603Z,30.20
2018-07-23T17:38:47.764Z,30.10
2018-07-23T17:41:15.170Z,30.10
2018-07-23T17:43:42.541Z,30.10
2018-07-23T17:46:09.926Z,30.10
2018-07-23T17:48:42.920Z,30.00
2018-07-23T17:51:10.691Z,30.00
2018-07-23T17:53:38.109Z,29.90
2018-07-23T17:56:05.614Z,30.00
2018-07-23T17:58:32.976Z,29.90
2018-07-23T18:01:05.935Z,29.80
2018-07-23T18:03:33.350Z,29.80
2018-07-23T18:06:01.022Z,29.80
2018-07-23T18:08:28.761Z,29.70
2018-07-23T18:10:57.105Z,29.70
2018-07-23T18:13:24.970Z,29.60
2018-07-23T18:15:52.462Z,29.60
2018-07-23T18:18:19.934Z,29.50
2018-07-23T18:20:47.301Z,29.40
2018-07-23T18:23:14.644Z,29.60
2018-07-23T18:25:42.135Z,29.30
2018-07-23T18:28:09.457Z,29.20
2018-07-23T18:30:36.842Z,29.10
2018-07-23T18:33:04.323Z,29.10
2018-07-23T18:35:31.700Z,29.00
2018-07-23T18:37:59.118Z,28.90
2018-07-23T18:40:26.549Z,28.90
2018-07-23T18:42:53.977Z,28.80
2018-07-23T18:47:49.109Z,28.70
2018-07-23T18:50:16.579Z,28.60
2018-07-23T18:52:43.986Z,28.40
2018-07-23T18:55:11.390Z,28.40
2018-07-23T18:57:38.867Z,28.30
2018-07-23T19:00:06.405Z,28.20
2018-07-23T19:02:34.030Z,28.20
2018-07-23T19:05:01.454Z,28.00
2018-07-23T19:07:28.793Z,28.00
2018-07-23T19:09:56.150Z,27.90
2018-07-23T19:12:23.550Z,27.80
2018-07-23T19:14:51.395Z,27.80
2018-07-23T19:17:18.820Z,27.70
2018-07-23T19:19:46.281Z,27.70
2018-07-23T19:22:13.637Z,27.60
2018-07-23T19:24:41.029Z,27.50
2018-07-23T19:27:08.471Z,27.50
2018-07-23T19:29:35.807Z,27.40
2018-07-23T19:32:03.206Z,27.30
2018-07-23T19:34:30.561Z,27.30
2018-07-23T19:36:57.920Z,27.20
2018-07-23T19:39:25.325Z,27.20
2018-07-23T19:41:52.711Z,27.10
2018-07-23T19:44:20.065Z,27.00
2018-07-23T19:46:47.618Z,26.90
2018-07-23T19:49:14.987Z,26.80
2018-07-23T19:51:42.422Z,27.20
2018-07-23T19:54:10.179Z,26.70
2018-07-23T19:56:37.562Z,26.70
2018-07-23T19:59:05.036Z,26.40
2018-07-23T20:01:32.697Z,26.50
2018-07-23T20:04:00.307Z,26.40
2018-07-23T20:06:28.675Z,26.40
2018-07-23T20:08:56.980Z,26.40
2018-07-23T20:11:25.117Z,26.30
2018-07-23T20:13:52.507Z,26.20
2018-07-23T20:16:20.193Z,26.20
2018-07-23T20:18:47.668Z,26.10
2018-07-23T20:21:15.154Z,26.00
2018-07-23T20:23:42.848Z,26.00
2018-07-23T20:26:10.236Z,25.90
2018-07-23T20:28:37.790Z,25.80
2018-07-23T20:31:05.618Z,25.80
2018-07-23T20:33:33.322Z,25.70
2018-07-23T20:36:01.291Z,25.70
2018-07-23T20:38:28.871Z,25.70
2018-07-23T20:40:56.325Z,25.60
2018-07-23T20:43:25.526Z,25.60
2018-07-23T20:45:53.115Z,25.50
2018-07-23T20:48:21.261Z,25.50
2018-07-23T20:50:48.697Z,25.40
2018-07-23T20:53:16.193Z,25.30
2018-07-23T20:55:43.657Z,25.30
2018-07-23T20:58:11.095Z,25.20
2018-07-23T21:00:38.542Z,25.20
2018-07-23T21:03:06.095Z,25.10
2018-07-23T21:05:34.230Z,25.00
2018-07-23T21:08:01.619Z,25.00
2018-07-23T21:10:28.961Z,24.90
2018-07-23T21:12:56.317Z,24.90
2018-07-23T21:15:23.705Z,25.30
2018-07-23T21:17:51.089Z,24.80
2018-07-23T21:20:18.480Z,24.80
2018-07-23T21:22:45.946Z,24.70
2018-07-23T21:25:13.415Z,24.70
2018-07-23T21:27:40.794Z,24.80
2018-07-23T21:30:08.190Z,24.50
2018-07-23T21:32:35.907Z,24.40
2018-07-23T21:35:04.165Z,24.40
2018-07-23T21:37:31.501Z,24.30
2018-07-23T21:39:58.958Z,24.30
2018-07-23T21:42:26.350Z,24.20
2018-07-23T21:44:53.769Z,24.20
2018-07-23T21:47:21.131Z,24.40
2018-07-23T21:49:48.510Z,24.20
2018-07-23T21:52:16.030Z,24.10
2018-07-23T21:54:43.382Z,24.00
2018-07-23T21:57:10.829Z,24.00
2018-07-23T21:59:38.725Z,23.90
2018-07-23T22:02:06.268Z,23.90
2018-07-23T22:04:33.840Z,23.80
2018-07-23T22:07:01.398Z,23.70
2018-07-23T22:09:28.787Z,23.70
2018-07-23T22:11:56.669Z,23.70
2018-07-23T22:14:24.077Z,23.60
2018-07-23T22:16:51.464Z,23.60
2018-07-23T22:19:18.857Z,23.50
2018-07-23T22:21:46.309Z,23.50
2018-07-23T22:24:13.752Z,23.40
2018-07-23T22:26:41.158Z,23.40
2018-07-23T22:29:08.640Z,23.40
2018-07-23T22:31:36.258Z,23.40
2018-07-23T22:34:03.802Z,23.40
2018-07-23T22:36:31.199Z,23.30
2018-07-23T22:38:58.594Z,23.20
2018-07-23T22:41:26.001Z,23.20
2018-07-23T22:43:53.535Z,23.10
2018-07-23T22:46:20.926Z,23.10
2018-07-23T22:48:48.367Z,23.10
2018-07-23T22:51:15.788Z,23.00
2018-07-23T22:53:43.288Z,23.00
2018-07-23T22:56:12.722Z,23.00
2018-07-23T22:58:40.126Z,22.90
2018-07-23T23:01:10.089Z,22.90
2018-07-23T23:03:37.484Z,22.90
2018-07-23T23:06:05.432Z,22.80
2018-07-23T23:11:00.209Z,22.70
2018-07-23T23:13:27.586Z,22.60
2018-07-23T23:15:54.983Z,22.60
2018-07-23T23:18:22.447Z,22.60
2018-07-23T23:20:49.843Z,22.60
2018-07-23T23:23:17.330Z,22.60
2018-07-23T23:25:44.770Z,22.50
2018-07-23T23:28:12.194Z,22.50
2018-07-23T23:30:39.651Z,22.50
2018-07-23T23:33:07.047Z,22.40
2018-07-23T23:35:34.624Z,22.40
2018-07-23T23:38:02.267Z,22.40
2018-07-23T23:40:29.750Z,22.30
2018-07-23T23:42:57.459Z,22.30
2018-07-23T23:45:24.817Z,22.30
2018-07-23T23:47:52.179Z,22.20
2018-07-23T23:50:19.587Z,22.20
2018-07-23T23:52:46.952Z,22.20
2018-07-23T23:55:14.357Z,22.20
2018-07-23T23:57:41.743Z,22.20
